Aérodrome :
LOGIN :

S'inscrire | Disclaimer

   EN    FR    IT 

 










Légende :    VFR   VFR Marginal   IFR   IFR Intensif   IFR Très Intensif
Visi : 
Plafond : 
>= 8 km
>= 3000ft
5 à 8 km
1000 à 3000 ft
1500m à 5 km
500 à 1000 ft
800 à 1500m
200 à 500 ft
< 800m
< 200 ft
Symboles :   Orages  Brouillard  Fortes neiges  Fortes précipitations  Vent > 20 kt
SIGMETs :   Divers  Orages  Givrage  Turbulence  Onde Orograph.  Cendres Volcan.







- Altitude de l'aérodrome : 1910 ft
- Code IATA : RDZ
- Voir les cartes d'approche


LFCR - Rodez

DERNIER METAR :
  • 152100Z AUTO 10005KT 9000 // FEW012 BKN020 BKN048 05/05 Q1016

METARs EXPIRÉS :
  • 152030Z AUTO 09007KT 9000 // SCT009/// BKN049/// OVC062/// ///TCU 05/04 Q1016
  • 152000Z AUTO 08003KT 9000 // OVC010/// ///TCU 05/04 Q1017
  • 151930Z AUTO 09004KT 5000 // OVC010 05/04 Q1017
  • 151900Z AUTO 12005KT 9999 // BKN013 OVC019 05/04 Q1017
  • 151830Z AUTO 11005KT 9000 // BKN012 OVC048 04/04 Q1017

TAF AMD TAF LFCR
Valide du 15 à 18h jusqu'au 16 à 18h UTC


151849Z 1518/1618 13005KT 8000 -RADZ OVC013
BECMG 1518/1520 4000 OVC007
BECMG 1600/1603 2000 OVC004
TEMPO 1523/1609 0800 FG VV///
BECMG 1609/1611 4000
TEMPO 1611/1614 8000 NSW SCT010 BKN030
BECMG 1614/1616 32010KT
Pas de NOTAMs connus pour ce terrain.



MET'MAP, la Météo Aéronautique d'un coup d'oeil ! - Copyright ORBIFLY Décembre 2007 - Disclaimer

ORBIFLY MET'MAP TEAM :

Programmation & Développement : Alexandra Zaïnal
Conception & Développement : Baudouin d'Aumeries
Co-Programmation & Développement : Marc-Olivier Méhu
Soutien technique & logistique : Manuel Goepfert

Contact : metmap@orbifly.com




SOURCES & CREDITS :

   NOAA